Arraias, Brazil
Current Conditions -  °F | °C
As of 9:00 AM on Tuesday 27 Jan 2015 (Local Time) from SBPJ Reporting Station
Few Clouds Few Clouds  
Wind Chill: 82°   Ceiling: Unl
Heat Index: 86°   Visibility: 6mi
Dew Point: 70°   Wind: 7mph
Humidity: 66%   Direction: 140°SE
Pressure: 29.97"   Gusts: NA
Location:  12.93°S, 46.94°W
Report Text: SBPJ 271200Z 14006KT 9999 FEW017 28/21 Q1015
Loading
Personal Weather Stations






























Interactive Weather Map New forecast layout! Learn more

10-Day Weather Forecast

Advertisements
Track Severe Weather on mobile